sensor_id;sensor_type;location;lat;lon;timestamp;temperature;humidity
11700;DHT22;5906;51.660;6.674;2023-08-24T00:02:00;17.30;99.90
11700;DHT22;5906;51.660;6.674;2023-08-24T00:04:27;17.30;99.90
11700;DHT22;5906;51.660;6.674;2023-08-24T00:06:54;17.20;99.90
11700;DHT22;5906;51.660;6.674;2023-08-24T00:09:22;17.20;99.90
11700;DHT22;5906;51.660;6.674;2023-08-24T00:11:49;17.20;99.90
11700;DHT22;5906;51.660;6.674;2023-08-24T00:14:17;17.20;99.90
11700;DHT22;5906;51.660;6.674;2023-08-24T00:16:44;17.20;99.90
11700;DHT22;5906;51.660;6.674;2023-08-24T00:19:11;17.10;99.90
11700;DHT22;5906;51.660;6.674;2023-08-24T00:21:38;17.10;99.90
11700;DHT22;5906;51.660;6.674;2023-08-24T00:24:05;17.10;99.90
11700;DHT22;5906;51.660;6.674;2023-08-24T00:26:32;17.10;99.90
11700;DHT22;5906;51.660;6.674;2023-08-24T00:28:59;17.10;99.90
11700;DHT22;5906;51.660;6.674;2023-08-24T00:31:27;17.20;99.90
11700;DHT22;5906;51.660;6.674;2023-08-24T00:33:54;17.20;99.90
11700;DHT22;5906;51.660;6.674;2023-08-24T00:36:21;17.20;99.90
11700;DHT22;5906;51.660;6.674;2023-08-24T00:38:50;17.20;99.90
11700;DHT22;5906;51.660;6.674;2023-08-24T00:41:18;17.10;99.90
11700;DHT22;5906;51.660;6.674;2023-08-24T00:43:46;17.10;99.90
11700;DHT22;5906;51.660;6.674;2023-08-24T00:46:13;17.00;99.90
11700;DHT22;5906;51.660;6.674;2023-08-24T00:48:40;17.00;99.90
11700;DHT22;5906;51.660;6.674;2023-08-24T00:51:07;17.00;99.90
11700;DHT22;5906;51.660;6.674;2023-08-24T00:53:35;17.00;99.90
11700;DHT22;5906;51.660;6.674;2023-08-24T00:56:03;17.00;99.90
11700;DHT22;5906;51.660;6.674;2023-08-24T00:58:32;17.00;99.90
11700;DHT22;5906;51.660;6.674;2023-08-24T01:01:00;16.90;99.90
11700;DHT22;5906;51.660;6.674;2023-08-24T01:03:27;16.80;99.90
11700;DHT22;5906;51.660;6.674;2023-08-24T01:05:54;16.80;99.90
11700;DHT22;5906;51.660;6.674;2023-08-24T01:08:22;16.80;99.90
11700;DHT22;5906;51.660;6.674;2023-08-24T01:11:05;16.80;99.90
11700;DHT22;5906;51.660;6.674;2023-08-24T01:16:45;16.90;99.90
11700;DHT22;5906;51.660;6.674;2023-08-24T01:19:37;16.80;99.90
11700;DHT22;5906;51.660;6.674;2023-08-24T01:27:36;16.80;99.90
11700;DHT22;5906;51.660;6.674;2023-08-24T01:30:05;16.70;99.90
11700;DHT22;5906;51.660;6.674;2023-08-24T01:32:36;16.80;99.90
11700;DHT22;5906;51.660;6.674;2023-08-24T01:35:08;16.80;99.90
11700;DHT22;5906;51.660;6.674;2023-08-24T01:37:36;16.80;99.90
11700;DHT22;5906;51.660;6.674;2023-08-24T01:40:25;16.60;99.90
11700;DHT22;5906;51.660;6.674;2023-08-24T01:43:13;16.70;99.90
11700;DHT22;5906;51.660;6.674;2023-08-24T01:45:44;16.60;99.90
11700;DHT22;5906;51.660;6.674;2023-08-24T01:48:12;16.60;99.90
11700;DHT22;5906;51.660;6.674;2023-08-24T01:50:40;16.50;99.90
11700;DHT22;5906;51.660;6.674;2023-08-24T01:53:08;16.60;99.90
11700;DHT22;5906;51.660;6.674;2023-08-24T01:55:35;16.50;99.90
11700;DHT22;5906;51.660;6.674;2023-08-24T01:58:03;16.50;99.90
11700;DHT22;5906;51.660;6.674;2023-08-24T02:00:30;16.50;99.90
11700;DHT22;5906;51.660;6.674;2023-08-24T02:02:57;16.50;99.90
11700;DHT22;5906;51.660;6.674;2023-08-24T02:05:24;16.50;99.90
11700;DHT22;5906;51.660;6.674;2023-08-24T02:07:54;16.50;99.90
11700;DHT22;5906;51.660;6.674;2023-08-24T02:10:21;16.50;99.90
11700;DHT22;5906;51.660;6.674;2023-08-24T02:12:48;16.40;99.90
11700;DHT22;5906;51.660;6.674;2023-08-24T02:15:15;16.40;99.90
11700;DHT22;5906;51.660;6.674;2023-08-24T02:17:42;16.40;99.90
11700;DHT22;5906;51.660;6.674;2023-08-24T02:20:35;16.40;99.90
11700;DHT22;5906;51.660;6.674;2023-08-24T02:23:03;16.40;99.90
11700;DHT22;5906;51.660;6.674;2023-08-24T02:25:30;16.40;99.90
11700;DHT22;5906;51.660;6.674;2023-08-24T02:27:58;16.40;99.90
11700;DHT22;5906;51.660;6.674;2023-08-24T02:30:25;16.40;99.90
11700;DHT22;5906;51.660;6.674;2023-08-24T02:32:52;16.50;99.90
11700;DHT22;5906;51.660;6.674;2023-08-24T02:35:19;16.60;99.90
11700;DHT22;5906;51.660;6.674;2023-08-24T02:37:46;16.60;99.90
11700;DHT22;5906;51.660;6.674;2023-08-24T02:40:14;16.50;99.90
11700;DHT22;5906;51.660;6.674;2023-08-24T02:42:42;16.40;99.90
11700;DHT22;5906;51.660;6.674;2023-08-24T02:45:09;16.50;99.90
11700;DHT22;5906;51.660;6.674;2023-08-24T02:47:36;16.50;99.90
11700;DHT22;5906;51.660;6.674;2023-08-24T02:50:05;16.50;99.90
11700;DHT22;5906;51.660;6.674;2023-08-24T02:52:33;16.60;99.90
11700;DHT22;5906;51.660;6.674;2023-08-24T02:55:00;16.60;99.90
11700;DHT22;5906;51.660;6.674;2023-08-24T02:57:28;16.70;99.90
11700;DHT22;5906;51.660;6.674;2023-08-24T02:59:56;16.70;99.90
11700;DHT22;5906;51.660;6.674;2023-08-24T03:02:23;16.60;99.90
11700;DHT22;5906;51.660;6.674;2023-08-24T03:04:50;16.70;99.90
11700;DHT22;5906;51.660;6.674;2023-08-24T03:07:17;16.70;99.90
11700;DHT22;5906;51.660;6.674;2023-08-24T03:09:45;16.70;99.90
11700;DHT22;5906;51.660;6.674;2023-08-24T03:12:12;16.70;99.90
11700;DHT22;5906;51.660;6.674;2023-08-24T03:14:40;16.70;99.90
11700;DHT22;5906;51.660;6.674;2023-08-24T03:17:07;16.60;99.90
11700;DHT22;5906;51.660;6.674;2023-08-24T03:19:39;16.60;99.90
11700;DHT22;5906;51.660;6.674;2023-08-24T03:22:07;16.60;99.90
11700;DHT22;5906;51.660;6.674;2023-08-24T03:24:34;16.60;99.90
11700;DHT22;5906;51.660;6.674;2023-08-24T03:27:01;16.60;99.90
11700;DHT22;5906;51.660;6.674;2023-08-24T03:29:28;16.60;99.90
11700;DHT22;5906;51.660;6.674;2023-08-24T03:31:57;16.70;99.90
11700;DHT22;5906;51.660;6.674;2023-08-24T03:34:24;16.60;99.90
11700;DHT22;5906;51.660;6.674;2023-08-24T03:36:51;16.70;99.90
11700;DHT22;5906;51.660;6.674;2023-08-24T03:39:18;16.70;99.90
11700;DHT22;5906;51.660;6.674;2023-08-24T03:41:47;16.70;99.90
11700;DHT22;5906;51.660;6.674;2023-08-24T03:44:13;16.70;99.90
11700;DHT22;5906;51.660;6.674;2023-08-24T03:46:41;16.70;99.90
11700;DHT22;5906;51.660;6.674;2023-08-24T03:49:08;16.70;99.90
11700;DHT22;5906;51.660;6.674;2023-08-24T03:51:35;16.80;99.90
11700;DHT22;5906;51.660;6.674;2023-08-24T03:54:02;16.80;99.90
11700;DHT22;5906;51.660;6.674;2023-08-24T03:56:29;16.80;99.90
11700;DHT22;5906;51.660;6.674;2023-08-24T03:58:59;16.80;99.90
11700;DHT22;5906;51.660;6.674;2023-08-24T04:01:26;16.80;99.90
11700;DHT22;5906;51.660;6.674;2023-08-24T04:03:53;16.80;99.90
11700;DHT22;5906;51.660;6.674;2023-08-24T04:06:20;17.00;99.90
11700;DHT22;5906;51.660;6.674;2023-08-24T04:08:48;16.90;99.90
11700;DHT22;5906;51.660;6.674;2023-08-24T04:11:15;17.00;99.90
11700;DHT22;5906;51.660;6.674;2023-08-24T04:13:42;17.00;99.90
11700;DHT22;5906;51.660;6.674;2023-08-24T04:16:09;17.10;99.90
11700;DHT22;5906;51.660;6.674;2023-08-24T04:18:36;17.10;99.90
11700;DHT22;5906;51.660;6.674;2023-08-24T04:21:03;17.20;99.90
11700;DHT22;5906;51.660;6.674;2023-08-24T04:23:32;17.10;99.90
11700;DHT22;5906;51.660;6.674;2023-08-24T04:26:02;17.10;99.90
11700;DHT22;5906;51.660;6.674;2023-08-24T04:28:49;17.00;99.90
11700;DHT22;5906;51.660;6.674;2023-08-24T04:31:16;17.00;99.90
11700;DHT22;5906;51.660;6.674;2023-08-24T04:33:43;17.00;99.90
11700;DHT22;5906;51.660;6.674;2023-08-24T04:36:10;17.00;99.90
11700;DHT22;5906;51.660;6.674;2023-08-24T04:38:37;17.00;99.90
11700;DHT22;5906;51.660;6.674;2023-08-24T04:41:08;17.10;99.90
11700;DHT22;5906;51.660;6.674;2023-08-24T04:43:35;17.20;99.90
11700;DHT22;5906;51.660;6.674;2023-08-24T04:46:06;17.20;99.90
11700;DHT22;5906;51.660;6.674;2023-08-24T04:48:34;17.20;99.90
11700;DHT22;5906;51.660;6.674;2023-08-24T04:51:01;17.20;99.90
11700;DHT22;5906;51.660;6.674;2023-08-24T04:53:30;17.20;99.90
11700;DHT22;5906;51.660;6.674;2023-08-24T04:55:57;17.20;99.90
11700;DHT22;5906;51.660;6.674;2023-08-24T04:58:24;17.30;99.90
11700;DHT22;5906;51.660;6.674;2023-08-24T05:00:53;17.40;99.90
11700;DHT22;5906;51.660;6.674;2023-08-24T05:03:42;17.50;99.90
11700;DHT22;5906;51.660;6.674;2023-08-24T05:06:09;17.50;99.90
11700;DHT22;5906;51.660;6.674;2023-08-24T05:08:36;17.50;99.90
11700;DHT22;5906;51.660;6.674;2023-08-24T05:11:13;17.50;99.90
11700;DHT22;5906;51.660;6.674;2023-08-24T05:13:41;17.50;99.90
11700;DHT22;5906;51.660;6.674;2023-08-24T05:16:09;17.50;99.90
11700;DHT22;5906;51.660;6.674;2023-08-24T05:18:37;17.50;99.90
11700;DHT22;5906;51.660;6.674;2023-08-24T05:21:05;17.50;99.90
11700;DHT22;5906;51.660;6.674;2023-08-24T05:23:33;17.50;99.90
11700;DHT22;5906;51.660;6.674;2023-08-24T05:26:01;17.40;99.90
11700;DHT22;5906;51.660;6.674;2023-08-24T05:28:30;17.50;99.90
11700;DHT22;5906;51.660;6.674;2023-08-24T05:30:58;17.40;99.90
11700;DHT22;5906;51.660;6.674;2023-08-24T05:33:44;17.30;99.90
11700;DHT22;5906;51.660;6.674;2023-08-24T05:36:11;17.40;99.90
11700;DHT22;5906;51.660;6.674;2023-08-24T05:38:38;17.30;99.90
11700;DHT22;5906;51.660;6.674;2023-08-24T05:41:29;17.30;99.90
11700;DHT22;5906;51.660;6.674;2023-08-24T05:43:56;17.30;99.90
11700;DHT22;5906;51.660;6.674;2023-08-24T05:46:24;17.40;99.90
11700;DHT22;5906;51.660;6.674;2023-08-24T05:48:51;17.50;99.90
11700;DHT22;5906;51.660;6.674;2023-08-24T05:51:18;17.50;99.90
11700;DHT22;5906;51.660;6.674;2023-08-24T05:53:45;17.50;99.90
11700;DHT22;5906;51.660;6.674;2023-08-24T05:56:12;17.50;99.90
11700;DHT22;5906;51.660;6.674;2023-08-24T05:58:39;17.60;99.90
11700;DHT22;5906;51.660;6.674;2023-08-24T06:01:06;17.70;99.90
11700;DHT22;5906;51.660;6.674;2023-08-24T06:03:34;17.80;99.90
11700;DHT22;5906;51.660;6.674;2023-08-24T06:06:03;17.80;99.90
11700;DHT22;5906;51.660;6.674;2023-08-24T06:08:31;18.00;99.90
11700;DHT22;5906;51.660;6.674;2023-08-24T06:10:58;18.10;99.90
11700;DHT22;5906;51.660;6.674;2023-08-24T06:13:25;18.20;99.90
11700;DHT22;5906;51.660;6.674;2023-08-24T06:15:53;18.30;99.90
11700;DHT22;5906;51.660;6.674;2023-08-24T06:18:38;18.40;99.90
11700;DHT22;5906;51.660;6.674;2023-08-24T06:21:08;18.40;99.90
11700;DHT22;5906;51.660;6.674;2023-08-24T06:23:35;18.60;99.90
11700;DHT22;5906;51.660;6.674;2023-08-24T06:26:02;18.60;99.90
11700;DHT22;5906;51.660;6.674;2023-08-24T06:28:32;18.80;99.90
11700;DHT22;5906;51.660;6.674;2023-08-24T06:31:00;18.90;99.90
11700;DHT22;5906;51.660;6.674;2023-08-24T06:33:28;19.00;99.90
11700;DHT22;5906;51.660;6.674;2023-08-24T06:35:57;19.20;99.90
11700;DHT22;5906;51.660;6.674;2023-08-24T06:38:26;19.30;99.90
11700;DHT22;5906;51.660;6.674;2023-08-24T06:40:52;19.40;99.90
11700;DHT22;5906;51.660;6.674;2023-08-24T06:43:20;19.50;99.90
11700;DHT22;5906;51.660;6.674;2023-08-24T06:45:46;19.60;99.90
11700;DHT22;5906;51.660;6.674;2023-08-24T06:48:13;19.70;99.90
11700;DHT22;5906;51.660;6.674;2023-08-24T06:50:41;19.80;99.90
11700;DHT22;5906;51.660;6.674;2023-08-24T06:53:07;19.90;99.90
11700;DHT22;5906;51.660;6.674;2023-08-24T06:55:34;20.00;99.90
11700;DHT22;5906;51.660;6.674;2023-08-24T06:58:06;20.20;99.90
11700;DHT22;5906;51.660;6.674;2023-08-24T07:00:33;20.50;99.90
11700;DHT22;5906;51.660;6.674;2023-08-24T07:03:00;20.70;99.90
11700;DHT22;5906;51.660;6.674;2023-08-24T07:05:27;20.80;99.90
11700;DHT22;5906;51.660;6.674;2023-08-24T07:07:55;20.90;99.90
11700;DHT22;5906;51.660;6.674;2023-08-24T07:10:23;21.00;99.90
11700;DHT22;5906;51.660;6.674;2023-08-24T07:12:50;21.20;99.90
11700;DHT22;5906;51.660;6.674;2023-08-24T07:15:18;21.40;99.90
11700;DHT22;5906;51.660;6.674;2023-08-24T07:17:45;21.50;99.90
11700;DHT22;5906;51.660;6.674;2023-08-24T07:20:12;21.80;99.90
11700;DHT22;5906;51.660;6.674;2023-08-24T07:22:40;22.10;99.90
11700;DHT22;5906;51.660;6.674;2023-08-24T07:25:07;22.40;99.90
11700;DHT22;5906;51.660;6.674;2023-08-24T07:27:35;22.70;99.90
11700;DHT22;5906;51.660;6.674;2023-08-24T07:30:03;22.90;99.90
11700;DHT22;5906;51.660;6.674;2023-08-24T07:32:48;23.10;99.90
11700;DHT22;5906;51.660;6.674;2023-08-24T07:35:15;23.40;99.90
11700;DHT22;5906;51.660;6.674;2023-08-24T07:37:43;23.60;99.90
11700;DHT22;5906;51.660;6.674;2023-08-24T07:40:10;23.70;99.90
11700;DHT22;5906;51.660;6.674;2023-08-24T07:42:50;23.90;99.90
11700;DHT22;5906;51.660;6.674;2023-08-24T07:45:20;24.00;99.90
11700;DHT22;5906;51.660;6.674;2023-08-24T07:47:47;24.10;99.90
11700;DHT22;5906;51.660;6.674;2023-08-24T07:50:16;24.10;99.90
11700;DHT22;5906;51.660;6.674;2023-08-24T07:52:43;24.30;99.90
11700;DHT22;5906;51.660;6.674;2023-08-24T07:55:10;24.60;99.90
11700;DHT22;5906;51.660;6.674;2023-08-24T07:57:40;24.80;99.90
11700;DHT22;5906;51.660;6.674;2023-08-24T08:00:07;24.80;99.90
11700;DHT22;5906;51.660;6.674;2023-08-24T08:02:36;24.90;99.90
11700;DHT22;5906;51.660;6.674;2023-08-24T08:05:05;25.00;99.90
11700;DHT22;5906;51.660;6.674;2023-08-24T08:07:34;25.00;99.90
11700;DHT22;5906;51.660;6.674;2023-08-24T08:10:01;25.00;99.90
11700;DHT22;5906;51.660;6.674;2023-08-24T08:12:29;25.10;99.90
11700;DHT22;5906;51.660;6.674;2023-08-24T08:14:58;25.20;99.90
11700;DHT22;5906;51.660;6.674;2023-08-24T08:17:26;25.30;99.90
11700;DHT22;5906;51.660;6.674;2023-08-24T08:19:55;25.30;99.90
11700;DHT22;5906;51.660;6.674;2023-08-24T08:22:25;25.30;99.90
11700;DHT22;5906;51.660;6.674;2023-08-24T08:24:56;25.40;99.90
11700;DHT22;5906;51.660;6.674;2023-08-24T08:27:27;25.60;99.90
11700;DHT22;5906;51.660;6.674;2023-08-24T08:29:54;25.80;99.90
11700;DHT22;5906;51.660;6.674;2023-08-24T08:32:21;25.70;97.00
11700;DHT22;5906;51.660;6.674;2023-08-24T08:34:48;25.60;99.20
11700;DHT22;5906;51.660;6.674;2023-08-24T08:37:16;25.90;99.40
11700;DHT22;5906;51.660;6.674;2023-08-24T08:39:43;26.00;97.30
11700;DHT22;5906;51.660;6.674;2023-08-24T08:42:14;26.10;96.00
11700;DHT22;5906;51.660;6.674;2023-08-24T08:44:46;26.20;98.90
11700;DHT22;5906;51.660;6.674;2023-08-24T08:47:13;26.30;99.80
11700;DHT22;5906;51.660;6.674;2023-08-24T08:49:43;26.50;95.50
11700;DHT22;5906;51.660;6.674;2023-08-24T08:52:10;26.70;95.70
11700;DHT22;5906;51.660;6.674;2023-08-24T08:54:38;26.90;94.60
11700;DHT22;5906;51.660;6.674;2023-08-24T08:57:06;26.80;95.60
11700;DHT22;5906;51.660;6.674;2023-08-24T08:59:34;27.10;91.10
11700;DHT22;5906;51.660;6.674;2023-08-24T09:02:02;27.00;91.50
11700;DHT22;5906;51.660;6.674;2023-08-24T09:04:32;27.20;87.00
11700;DHT22;5906;51.660;6.674;2023-08-24T09:06:59;27.40;88.40
11700;DHT22;5906;51.660;6.674;2023-08-24T09:09:34;27.80;82.50
11700;DHT22;5906;51.660;6.674;2023-08-24T09:12:01;28.10;73.30
11700;DHT22;5906;51.660;6.674;2023-08-24T09:14:29;28.10;75.00
11700;DHT22;5906;51.660;6.674;2023-08-24T09:16:56;28.00;78.70
11700;DHT22;5906;51.660;6.674;2023-08-24T09:19:30;28.00;74.30
11700;DHT22;5906;51.660;6.674;2023-08-24T09:22:00;28.10;71.70
11700;DHT22;5906;51.660;6.674;2023-08-24T09:24:32;28.30;71.30
11700;DHT22;5906;51.660;6.674;2023-08-24T09:27:00;28.10;66.30
11700;DHT22;5906;51.660;6.674;2023-08-24T09:34:51;28.30;58.10
11700;DHT22;5906;51.660;6.674;2023-08-24T09:37:18;28.30;56.20
11700;DHT22;5906;51.660;6.674;2023-08-24T09:39:47;28.50;59.30
11700;DHT22;5906;51.660;6.674;2023-08-24T09:42:14;28.70;59.10
11700;DHT22;5906;51.660;6.674;2023-08-24T09:44:45;28.70;58.40
11700;DHT22;5906;51.660;6.674;2023-08-24T09:47:12;28.80;56.60
11700;DHT22;5906;51.660;6.674;2023-08-24T09:49:39;28.90;57.40
11700;DHT22;5906;51.660;6.674;2023-08-24T09:52:07;29.00;54.20
11700;DHT22;5906;51.660;6.674;2023-08-24T09:54:38;29.20;57.30
11700;DHT22;5906;51.660;6.674;2023-08-24T09:57:08;29.40;54.80
11700;DHT22;5906;51.660;6.674;2023-08-24T09:59:39;29.30;50.00
11700;DHT22;5906;51.660;6.674;2023-08-24T10:02:15;29.30;53.40
11700;DHT22;5906;51.660;6.674;2023-08-24T10:04:45;29.50;54.20
11700;DHT22;5906;51.660;6.674;2023-08-24T10:07:16;29.40;49.00
11700;DHT22;5906;51.660;6.674;2023-08-24T10:09:53;29.30;51.10
11700;DHT22;5906;51.660;6.674;2023-08-24T10:12:26;29.20;52.30
11700;DHT22;5906;51.660;6.674;2023-08-24T10:15:02;29.40;54.60
11700;DHT22;5906;51.660;6.674;2023-08-24T10:17:31;29.50;50.80
11700;DHT22;5906;51.660;6.674;2023-08-24T10:20:00;29.50;49.20
11700;DHT22;5906;51.660;6.674;2023-08-24T10:22:36;29.70;52.40
11700;DHT22;5906;51.660;6.674;2023-08-24T10:25:04;29.60;52.10
11700;DHT22;5906;51.660;6.674;2023-08-24T10:27:32;29.60;44.40
11700;DHT22;5906;51.660;6.674;2023-08-24T10:29:59;29.70;49.20
11700;DHT22;5906;51.660;6.674;2023-08-24T10:32:27;29.70;48.50
11700;DHT22;5906;51.660;6.674;2023-08-24T10:34:54;29.60;49.10
11700;DHT22;5906;51.660;6.674;2023-08-24T10:37:39;29.50;48.90
11700;DHT22;5906;51.660;6.674;2023-08-24T10:40:06;29.40;51.20
11700;DHT22;5906;51.660;6.674;2023-08-24T10:42:44;29.60;47.90
11700;DHT22;5906;51.660;6.674;2023-08-24T10:45:13;29.50;45.20
11700;DHT22;5906;51.660;6.674;2023-08-24T10:47:45;29.50;51.30
11700;DHT22;5906;51.660;6.674;2023-08-24T10:50:14;29.70;44.10
11700;DHT22;5906;51.660;6.674;2023-08-24T10:52:44;29.70;48.10
11700;DHT22;5906;51.660;6.674;2023-08-24T10:55:26;29.90;46.80
11700;DHT22;5906;51.660;6.674;2023-08-24T10:57:58;29.50;50.80
11700;DHT22;5906;51.660;6.674;2023-08-24T11:00:27;29.50;48.60
11700;DHT22;5906;51.660;6.674;2023-08-24T11:02:54;29.40;49.30
11700;DHT22;5906;51.660;6.674;2023-08-24T11:05:29;29.60;51.50
11700;DHT22;5906;51.660;6.674;2023-08-24T11:07:58;29.70;49.20
11700;DHT22;5906;51.660;6.674;2023-08-24T11:10:47;29.60;46.20
11700;DHT22;5906;51.660;6.674;2023-08-24T11:13:18;29.40;48.70
11700;DHT22;5906;51.660;6.674;2023-08-24T11:15:48;29.40;46.90
11700;DHT22;5906;51.660;6.674;2023-08-24T11:18:25;29.20;51.00
11700;DHT22;5906;51.660;6.674;2023-08-24T11:21:06;29.10;52.20
11700;DHT22;5906;51.660;6.674;2023-08-24T11:23:33;29.20;51.40
11700;DHT22;5906;51.660;6.674;2023-08-24T11:26:01;29.10;54.90
11700;DHT22;5906;51.660;6.674;2023-08-24T11:28:29;29.30;56.10
11700;DHT22;5906;51.660;6.674;2023-08-24T11:30:58;29.20;52.80
11700;DHT22;5906;51.660;6.674;2023-08-24T11:33:33;29.40;54.20
11700;DHT22;5906;51.660;6.674;2023-08-24T11:36:03;29.60;55.50
11700;DHT22;5906;51.660;6.674;2023-08-24T11:38:41;29.50;56.90
11700;DHT22;5906;51.660;6.674;2023-08-24T11:43:40;29.60;53.70
11700;DHT22;5906;51.660;6.674;2023-08-24T11:46:07;29.50;53.90
11700;DHT22;5906;51.660;6.674;2023-08-24T11:48:34;29.50;54.30
11700;DHT22;5906;51.660;6.674;2023-08-24T11:51:03;29.30;57.90
11700;DHT22;5906;51.660;6.674;2023-08-24T11:53:31;29.40;58.80
11700;DHT22;5906;51.660;6.674;2023-08-24T11:55:59;29.40;62.00
11700;DHT22;5906;51.660;6.674;2023-08-24T11:58:32;29.40;62.10
11700;DHT22;5906;51.660;6.674;2023-08-24T12:00:59;29.40;61.50
11700;DHT22;5906;51.660;6.674;2023-08-24T12:03:27;29.40;60.20
11700;DHT22;5906;51.660;6.674;2023-08-24T12:05:58;29.40;56.40
11700;DHT22;5906;51.660;6.674;2023-08-24T12:08:25;29.00;57.30
11700;DHT22;5906;51.660;6.674;2023-08-24T12:10:52;29.00;59.00
11700;DHT22;5906;51.660;6.674;2023-08-24T12:13:19;29.10;58.80
11700;DHT22;5906;51.660;6.674;2023-08-24T12:15:46;29.00;58.30
11700;DHT22;5906;51.660;6.674;2023-08-24T12:18:16;29.10;55.70
11700;DHT22;5906;51.660;6.674;2023-08-24T12:20:43;29.10;54.50
11700;DHT22;5906;51.660;6.674;2023-08-24T12:23:10;29.00;56.60
11700;DHT22;5906;51.660;6.674;2023-08-24T12:25:42;29.10;56.60
11700;DHT22;5906;51.660;6.674;2023-08-24T12:28:14;29.10;57.10
11700;DHT22;5906;51.660;6.674;2023-08-24T12:30:48;29.20;56.50
11700;DHT22;5906;51.660;6.674;2023-08-24T12:33:31;29.10;57.30
11700;DHT22;5906;51.660;6.674;2023-08-24T12:35:58;29.00;53.60
11700;DHT22;5906;51.660;6.674;2023-08-24T12:38:26;29.00;53.60
11700;DHT22;5906;51.660;6.674;2023-08-24T12:40:53;28.90;54.90
11700;DHT22;5906;51.660;6.674;2023-08-24T12:43:24;28.70;58.90
11700;DHT22;5906;51.660;6.674;2023-08-24T12:45:51;28.70;57.50
11700;DHT22;5906;51.660;6.674;2023-08-24T12:48:18;28.60;58.00
11700;DHT22;5906;51.660;6.674;2023-08-24T12:50:45;28.60;57.30
11700;DHT22;5906;51.660;6.674;2023-08-24T12:53:12;28.70;59.10
11700;DHT22;5906;51.660;6.674;2023-08-24T12:55:40;28.30;58.10
11700;DHT22;5906;51.660;6.674;2023-08-24T12:58:07;28.30;60.10
11700;DHT22;5906;51.660;6.674;2023-08-24T13:00:34;28.30;65.40
11700;DHT22;5906;51.660;6.674;2023-08-24T13:03:01;28.10;71.20
11700;DHT22;5906;51.660;6.674;2023-08-24T13:05:28;28.10;87.50
11700;DHT22;5906;51.660;6.674;2023-08-24T13:07:55;28.00;94.00
11700;DHT22;5906;51.660;6.674;2023-08-24T13:10:23;27.90;97.10
11700;DHT22;5906;51.660;6.674;2023-08-24T13:12:51;28.00;99.90
11700;DHT22;5906;51.660;6.674;2023-08-24T13:15:19;28.00;99.90
11700;DHT22;5906;51.660;6.674;2023-08-24T13:17:47;28.10;99.90
11700;DHT22;5906;51.660;6.674;2023-08-24T13:20:14;28.30;99.90
11700;DHT22;5906;51.660;6.674;2023-08-24T13:22:41;28.40;99.90
11700;DHT22;5906;51.660;6.674;2023-08-24T13:25:09;28.40;96.20
11700;DHT22;5906;51.660;6.674;2023-08-24T13:27:36;28.10;94.60
11700;DHT22;5906;51.660;6.674;2023-08-24T13:30:03;28.10;95.80
11700;DHT22;5906;51.660;6.674;2023-08-24T13:32:30;28.10;94.30
11700;DHT22;5906;51.660;6.674;2023-08-24T13:34:58;28.00;96.30
11700;DHT22;5906;51.660;6.674;2023-08-24T13:37:26;27.90;96.10
11700;DHT22;5906;51.660;6.674;2023-08-24T13:39:53;28.00;95.80
11700;DHT22;5906;51.660;6.674;2023-08-24T13:42:20;27.70;96.70
11700;DHT22;5906;51.660;6.674;2023-08-24T13:44:47;27.20;99.90
11700;DHT22;5906;51.660;6.674;2023-08-24T13:47:14;26.90;99.90
11700;DHT22;5906;51.660;6.674;2023-08-24T13:49:43;26.80;99.90
11700;DHT22;5906;51.660;6.674;2023-08-24T13:52:10;26.50;99.90
11700;DHT22;5906;51.660;6.674;2023-08-24T13:54:37;26.50;99.90
11700;DHT22;5906;51.660;6.674;2023-08-24T13:57:06;26.30;99.90
11700;DHT22;5906;51.660;6.674;2023-08-24T13:59:32;26.30;99.90
11700;DHT22;5906;51.660;6.674;2023-08-24T14:02:00;26.20;99.90
11700;DHT22;5906;51.660;6.674;2023-08-24T14:04:27;26.30;99.90
11700;DHT22;5906;51.660;6.674;2023-08-24T14:06:54;26.50;99.90
11700;DHT22;5906;51.660;6.674;2023-08-24T14:09:21;26.60;99.90
11700;DHT22;5906;51.660;6.674;2023-08-24T14:11:48;26.60;99.90
11700;DHT22;5906;51.660;6.674;2023-08-24T14:14:15;26.50;99.90
11700;DHT22;5906;51.660;6.674;2023-08-24T14:16:42;26.70;99.90
11700;DHT22;5906;51.660;6.674;2023-08-24T14:19:09;26.70;99.90
11700;DHT22;5906;51.660;6.674;2023-08-24T14:21:57;26.80;99.90
11700;DHT22;5906;51.660;6.674;2023-08-24T14:24:25;26.90;98.80
11700;DHT22;5906;51.660;6.674;2023-08-24T14:26:54;26.80;99.00
11700;DHT22;5906;51.660;6.674;2023-08-24T14:29:21;26.80;99.90
11700;DHT22;5906;51.660;6.674;2023-08-24T14:31:48;26.90;98.90
11700;DHT22;5906;51.660;6.674;2023-08-24T14:34:15;26.80;99.90
11700;DHT22;5906;51.660;6.674;2023-08-24T14:37:00;26.80;99.90
11700;DHT22;5906;51.660;6.674;2023-08-24T14:39:27;26.80;99.90
11700;DHT22;5906;51.660;6.674;2023-08-24T14:41:54;26.70;99.90
11700;DHT22;5906;51.660;6.674;2023-08-24T14:44:22;26.90;99.90
11700;DHT22;5906;51.660;6.674;2023-08-24T14:46:50;26.90;99.90
11700;DHT22;5906;51.660;6.674;2023-08-24T14:49:17;26.80;99.90
11700;DHT22;5906;51.660;6.674;2023-08-24T14:51:46;26.80;99.90
11700;DHT22;5906;51.660;6.674;2023-08-24T14:54:34;26.50;99.90
11700;DHT22;5906;51.660;6.674;2023-08-24T14:57:01;26.30;99.90
11700;DHT22;5906;51.660;6.674;2023-08-24T14:59:30;26.30;99.90
11700;DHT22;5906;51.660;6.674;2023-08-24T15:01:57;26.30;99.90
11700;DHT22;5906;51.660;6.674;2023-08-24T15:04:27;26.20;99.90
11700;DHT22;5906;51.660;6.674;2023-08-24T15:06:54;26.20;99.90
11700;DHT22;5906;51.660;6.674;2023-08-24T15:09:21;26.20;99.90
11700;DHT22;5906;51.660;6.674;2023-08-24T15:11:49;26.20;99.90
11700;DHT22;5906;51.660;6.674;2023-08-24T15:14:16;26.10;99.90
11700;DHT22;5906;51.660;6.674;2023-08-24T15:16:43;26.10;99.90
11700;DHT22;5906;51.660;6.674;2023-08-24T15:19:10;26.10;99.90
11700;DHT22;5906;51.660;6.674;2023-08-24T15:21:38;26.00;99.90
11700;DHT22;5906;51.660;6.674;2023-08-24T15:24:05;26.10;99.90
11700;DHT22;5906;51.660;6.674;2023-08-24T15:26:32;25.90;99.90
11700;DHT22;5906;51.660;6.674;2023-08-24T15:29:11;25.80;99.90
11700;DHT22;5906;51.660;6.674;2023-08-24T15:31:38;25.70;99.90
11700;DHT22;5906;51.660;6.674;2023-08-24T15:34:05;25.60;99.90
11700;DHT22;5906;51.660;6.674;2023-08-24T15:36:33;25.50;99.90
11700;DHT22;5906;51.660;6.674;2023-08-24T15:39:00;25.50;99.90
11700;DHT22;5906;51.660;6.674;2023-08-24T15:41:44;25.50;99.90
11700;DHT22;5906;51.660;6.674;2023-08-24T15:44:11;25.40;99.90
11700;DHT22;5906;51.660;6.674;2023-08-24T15:46:38;25.40;99.90
11700;DHT22;5906;51.660;6.674;2023-08-24T15:49:05;25.40;99.90
11700;DHT22;5906;51.660;6.674;2023-08-24T15:51:32;25.30;99.90
11700;DHT22;5906;51.660;6.674;2023-08-24T15:54:00;25.20;99.90
11700;DHT22;5906;51.660;6.674;2023-08-24T15:56:28;25.00;99.90
11700;DHT22;5906;51.660;6.674;2023-08-24T15:58:55;24.80;99.90
11700;DHT22;5906;51.660;6.674;2023-08-24T16:01:22;24.60;99.90
11700;DHT22;5906;51.660;6.674;2023-08-24T16:03:49;24.50;99.90
11700;DHT22;5906;51.660;6.674;2023-08-24T16:06:16;24.30;99.90
11700;DHT22;5906;51.660;6.674;2023-08-24T16:08:43;24.20;99.90
11700;DHT22;5906;51.660;6.674;2023-08-24T16:11:12;24.20;99.90
11700;DHT22;5906;51.660;6.674;2023-08-24T16:13:40;24.10;99.90